createdAt,value
2018-05-17T00:02:16.431Z,81.70
2018-05-17T00:04:43.216Z,81.70
2018-05-17T00:07:10.137Z,81.70
2018-05-17T00:09:37.194Z,81.70
2018-05-17T00:12:04.141Z,81.80
2018-05-17T00:14:31.089Z,81.80
2018-05-17T00:16:57.826Z,81.60
2018-05-17T00:19:24.650Z,81.60
2018-05-17T00:21:51.404Z,81.40
2018-05-17T00:24:18.235Z,81.30
2018-05-17T00:26:45.110Z,81.40
2018-05-17T00:29:11.872Z,81.50
2018-05-17T00:31:39.494Z,82.30
2018-05-17T00:34:06.266Z,81.50
2018-05-17T00:36:33.207Z,81.50
2018-05-17T00:39:00.126Z,81.40
2018-05-17T00:41:26.999Z,81.50
2018-05-17T00:43:53.845Z,81.60
2018-05-17T00:46:20.620Z,81.70
2018-05-17T00:48:48.350Z,81.70
2018-05-17T00:51:15.085Z,81.70
2018-05-17T00:53:41.905Z,81.70
2018-05-17T00:56:08.884Z,81.70
2018-05-17T00:58:35.567Z,81.70
2018-05-17T01:01:03.122Z,81.80
2018-05-17T01:03:30.723Z,81.70
2018-05-17T01:05:57.595Z,81.70
2018-05-17T01:08:24.643Z,81.60
2018-05-17T01:10:51.372Z,81.40
2018-05-17T01:13:18.195Z,81.30
2018-05-17T01:15:45.191Z,81.00
2018-05-17T01:18:12.119Z,80.90
2018-05-17T01:20:38.967Z,80.60
2018-05-17T01:23:05.917Z,80.60
2018-05-17T01:25:32.761Z,80.40
2018-05-17T01:27:59.811Z,80.20
2018-05-17T01:30:26.873Z,80.20
2018-05-17T01:32:54.378Z,80.20
2018-05-17T01:35:21.373Z,80.10
2018-05-17T01:38:00.293Z,80.10
2018-05-17T01:40:27.136Z,80.20
2018-05-17T01:42:53.958Z,80.20
2018-05-17T01:45:20.962Z,80.20
2018-05-17T01:47:47.990Z,80.20
2018-05-17T01:50:14.831Z,80.20
2018-05-17T01:52:41.551Z,80.40
2018-05-17T01:55:08.285Z,80.70
2018-05-17T01:57:35.177Z,80.60
2018-05-17T02:00:01.948Z,80.40
2018-05-17T02:02:29.574Z,80.30
2018-05-17T02:04:56.616Z,80.30
2018-05-17T02:07:23.367Z,80.20
2018-05-17T02:09:50.312Z,80.10
2018-05-17T02:12:17.123Z,80.00
2018-05-17T02:14:43.887Z,80.00
2018-05-17T02:17:10.719Z,80.00
2018-05-17T02:19:37.575Z,79.90
2018-05-17T02:22:04.377Z,79.70
2018-05-17T02:24:31.242Z,79.30
2018-05-17T02:26:58.054Z,78.90
2018-05-17T02:29:25.671Z,78.70
2018-05-17T02:31:52.624Z,78.70
2018-05-17T02:34:19.437Z,78.80
2018-05-17T02:36:46.205Z,78.90
2018-05-17T02:39:13.160Z,79.00
2018-05-17T02:41:39.999Z,79.10
2018-05-17T02:44:07.056Z,79.30
2018-05-17T02:46:34.104Z,79.10
2018-05-17T02:49:01.051Z,79.00
2018-05-17T02:51:28.002Z,79.10
2018-05-17T02:53:54.718Z,80.00
2018-05-17T02:56:21.685Z,79.10
2018-05-17T02:58:48.451Z,79.10
2018-05-17T03:01:16.272Z,79.40
2018-05-17T03:03:43.113Z,79.30
2018-05-17T03:06:09.981Z,79.40
2018-05-17T03:08:36.927Z,79.40
2018-05-17T03:11:03.773Z,79.40
2018-05-17T03:13:30.723Z,79.40
2018-05-17T03:15:57.544Z,79.30
2018-05-17T03:18:24.350Z,79.10
2018-05-17T03:20:51.857Z,79.60
2018-05-17T03:23:18.819Z,79.00
2018-05-17T03:25:45.881Z,78.80
2018-05-17T03:28:12.713Z,78.80
2018-05-17T03:30:39.557Z,78.90
2018-05-17T03:33:06.512Z,78.70
2018-05-17T03:35:33.665Z,78.60
2018-05-17T03:38:00.611Z,78.70
2018-05-17T03:40:27.558Z,78.80
2018-05-17T03:42:54.509Z,78.90
2018-05-17T03:45:21.388Z,79.00
2018-05-17T03:47:49.014Z,79.50
2018-05-17T03:50:16.068Z,79.40
2018-05-17T03:52:42.846Z,79.40
2018-05-17T03:55:10.675Z,79.50
2018-05-17T03:57:37.729Z,79.50
2018-05-17T04:00:04.776Z,79.50
2018-05-17T04:02:44.009Z,79.40
2018-05-17T04:05:23.346Z,79.40
2018-05-17T04:07:50.396Z,79.50
2018-05-17T04:10:17.086Z,79.50
2018-05-17T04:12:44.691Z,79.70
2018-05-17T04:15:11.547Z,79.70
2018-05-17T04:17:38.493Z,79.90
2018-05-17T04:20:05.541Z,79.90
2018-05-17T04:22:32.301Z,80.10
2018-05-17T04:24:59.042Z,80.20
2018-05-17T04:27:26.592Z,80.20
2018-05-17T04:29:53.319Z,80.20
2018-05-17T04:32:20.074Z,80.10
2018-05-17T04:34:46.906Z,80.20
2018-05-17T04:37:13.651Z,80.30
2018-05-17T04:39:40.494Z,80.40
2018-05-17T04:42:07.556Z,80.50
2018-05-17T04:44:34.307Z,80.60
2018-05-17T04:47:01.100Z,80.80
2018-05-17T04:49:28.695Z,81.10
2018-05-17T04:51:55.447Z,81.10
2018-05-17T04:54:22.224Z,81.20
2018-05-17T04:56:49.955Z,81.90
2018-05-17T04:59:16.780Z,81.80
2018-05-17T05:01:43.713Z,82.10
2018-05-17T05:04:10.585Z,82.20
2018-05-17T05:06:38.972Z,82.60
2018-05-17T05:09:05.885Z,82.60
2018-05-17T05:11:32.729Z,82.80
2018-05-17T05:13:59.503Z,83.10
2018-05-17T05:16:26.338Z,83.40
2018-05-17T05:18:53.266Z,83.60
2018-05-17T05:21:20.238Z,83.30
2018-05-17T05:23:47.183Z,83.70
2018-05-17T05:26:14.030Z,83.90
2018-05-17T05:28:40.883Z,83.90
2018-05-17T05:31:07.948Z,83.90
2018-05-17T05:33:35.703Z,84.10
2018-05-17T05:36:02.536Z,84.00
2018-05-17T05:38:29.385Z,83.60
2018-05-17T05:40:56.345Z,83.60
2018-05-17T05:43:23.075Z,83.50
2018-05-17T05:45:49.923Z,83.40
2018-05-17T05:48:16.723Z,83.40
2018-05-17T05:50:43.477Z,83.40
2018-05-17T05:53:10.458Z,83.70
2018-05-17T05:55:37.293Z,83.60
2018-05-17T05:58:05.375Z,83.70
2018-05-17T06:00:32.323Z,83.70
2018-05-17T06:02:59.268Z,83.50
2018-05-17T06:05:26.319Z,83.40
2018-05-17T06:07:53.370Z,83.30
2018-05-17T06:10:20.288Z,83.30
2018-05-17T06:12:47.124Z,84.00
2018-05-17T06:15:13.912Z,84.60
2018-05-17T06:17:40.717Z,85.00
2018-05-17T06:20:07.697Z,84.70
2018-05-17T06:22:34.474Z,84.80
2018-05-17T06:25:02.205Z,86.10
2018-05-17T06:27:29.042Z,85.20
2018-05-17T06:29:56.100Z,85.10
2018-05-17T06:32:23.043Z,84.90
2018-05-17T06:34:49.883Z,84.80
2018-05-17T06:37:16.785Z,84.50
2018-05-17T06:39:44.494Z,84.20
2018-05-17T06:42:11.551Z,84.20
2018-05-17T06:44:38.499Z,84.10
2018-05-17T06:47:05.309Z,83.70
2018-05-17T06:49:32.181Z,83.10
2018-05-17T06:51:59.099Z,83.60
2018-05-17T06:54:25.866Z,83.90
2018-05-17T06:56:52.716Z,84.50
2018-05-17T06:59:19.434Z,84.70
2018-05-17T07:01:46.405Z,84.50
2018-05-17T07:04:13.358Z,84.50
2018-05-17T07:06:40.409Z,84.10
2018-05-17T07:09:08.176Z,83.10
2018-05-17T07:11:35.058Z,83.10
2018-05-17T07:14:02.753Z,83.40
2018-05-17T07:16:29.522Z,83.30
2018-05-17T07:18:56.381Z,82.90
2018-05-17T07:21:23.211Z,82.90
2018-05-17T07:23:50.013Z,82.30
2018-05-17T07:26:21.246Z,82.00
2018-05-17T07:28:48.736Z,81.50
2018-05-17T07:31:15.575Z,82.30
2018-05-17T07:33:42.371Z,82.20
2018-05-17T07:36:09.197Z,81.90
2018-05-17T07:38:36.060Z,81.20
2018-05-17T07:41:03.292Z,80.80
2018-05-17T07:43:30.081Z,81.00
2018-05-17T07:45:57.752Z,80.70
2018-05-17T07:48:24.759Z,80.70
2018-05-17T07:50:51.711Z,80.40
2018-05-17T07:53:18.485Z,80.40
2018-05-17T07:55:46.321Z,79.50
2018-05-17T07:58:13.153Z,79.50
2018-05-17T08:00:39.895Z,79.50
2018-05-17T08:03:06.621Z,79.30
2018-05-17T08:05:33.596Z,78.80
2018-05-17T08:08:00.517Z,78.60
2018-05-17T08:10:27.707Z,79.50
2018-05-17T08:12:54.647Z,77.90
2018-05-17T08:15:27.465Z,78.70
2018-05-17T08:17:55.201Z,78.90
2018-05-17T08:20:22.229Z,78.70
2018-05-17T08:22:49.079Z,79.20
2018-05-17T08:25:16.137Z,79.50
2018-05-17T08:27:42.907Z,78.50
2018-05-17T08:30:09.826Z,78.60
2018-05-17T08:32:36.640Z,79.40
2018-05-17T08:35:03.437Z,79.40
2018-05-17T08:37:31.065Z,78.70
2018-05-17T08:39:58.022Z,78.00
2018-05-17T08:42:24.969Z,78.70
2018-05-17T08:44:52.020Z,78.10
2018-05-17T08:47:18.857Z,77.40
2018-05-17T08:49:45.670Z,77.90
2018-05-17T08:52:12.655Z,78.00
2018-05-17T08:54:39.418Z,78.20
2018-05-17T08:57:06.339Z,77.60
2018-05-17T08:59:33.110Z,76.80
2018-05-17T09:02:00.035Z,77.80
2018-05-17T09:04:26.975Z,77.30
2018-05-17T09:06:53.908Z,76.10
2018-05-17T09:09:20.784Z,77.30
2018-05-17T09:11:47.626Z,76.80
2018-05-17T09:14:24.315Z,76.10
2018-05-17T09:16:51.364Z,76.20
2018-05-17T09:19:18.171Z,76.50
2018-05-17T09:21:45.239Z,76.30
2018-05-17T09:24:12.160Z,76.90
2018-05-17T09:26:39.920Z,78.10
2018-05-17T09:29:06.817Z,75.40
2018-05-17T09:31:34.146Z,74.70
2018-05-17T09:34:00.989Z,72.70
2018-05-17T09:36:27.946Z,73.10
2018-05-17T09:38:54.784Z,71.90
2018-05-17T09:41:21.522Z,72.80
2018-05-17T09:43:48.308Z,72.80
2018-05-17T09:46:15.933Z,70.80
2018-05-17T09:48:42.991Z,70.70
2018-05-17T09:51:10.038Z,70.90
2018-05-17T09:53:36.984Z,70.00
2018-05-17T09:56:03.992Z,70.60
2018-05-17T09:58:30.981Z,72.60
2018-05-17T10:00:57.769Z,72.60
2018-05-17T10:03:25.382Z,74.20
2018-05-17T10:05:52.226Z,74.10
2018-05-17T10:08:19.098Z,75.70
2018-05-17T10:10:46.230Z,72.30
2018-05-17T10:13:13.177Z,73.50
2018-05-17T10:15:52.329Z,68.70
2018-05-17T10:18:19.250Z,68.70
2018-05-17T10:20:46.198Z,68.80
2018-05-17T10:23:13.145Z,68.50
2018-05-17T10:25:40.098Z,68.30
2018-05-17T10:28:06.883Z,68.40
2018-05-17T10:30:34.496Z,67.60
2018-05-17T10:33:01.443Z,67.50
2018-05-17T10:35:28.534Z,66.20
2018-05-17T10:37:56.157Z,67.00
2018-05-17T10:40:23.070Z,67.00
2018-05-17T10:42:49.950Z,68.50
2018-05-17T10:45:16.796Z,69.30
2018-05-17T10:47:43.617Z,71.20
2018-05-17T10:50:10.502Z,70.50
2018-05-17T10:52:37.228Z,70.40
2018-05-17T10:55:04.285Z,70.40
2018-05-17T10:57:31.224Z,69.80
2018-05-17T10:59:58.071Z,71.30
2018-05-17T11:02:24.914Z,71.60
2018-05-17T11:04:51.868Z,71.80
2018-05-17T11:07:18.701Z,72.60
2018-05-17T11:09:45.659Z,73.40
2018-05-17T11:12:12.639Z,73.60
2018-05-17T11:15:12.987Z,72.40
2018-05-17T11:17:40.592Z,66.70
2018-05-17T11:20:07.856Z,66.70
2018-05-17T11:22:34.701Z,64.70
2018-05-17T11:25:01.539Z,61.20
2018-05-17T11:27:28.590Z,62.00
2018-05-17T11:29:56.103Z,62.80
2018-05-17T11:32:23.633Z,59.70
2018-05-17T11:34:50.564Z,59.70
2018-05-17T11:37:17.321Z,58.90
2018-05-17T11:39:44.359Z,61.00
2018-05-17T11:42:11.124Z,62.90
2018-05-17T11:44:37.919Z,64.70
2018-05-17T11:47:04.764Z,64.30
2018-05-17T11:49:31.734Z,63.60
2018-05-17T11:51:58.682Z,62.40
2018-05-17T11:54:25.522Z,63.10
2018-05-17T11:56:52.329Z,63.30
2018-05-17T11:59:19.087Z,64.50
2018-05-17T12:01:45.925Z,65.30
2018-05-17T12:04:12.772Z,64.90
2018-05-17T12:06:40.364Z,65.50
2018-05-17T12:09:07.237Z,66.50
2018-05-17T12:11:33.989Z,67.20
2018-05-17T12:14:01.444Z,66.00
2018-05-17T12:16:29.170Z,66.40
2018-05-17T12:18:56.555Z,66.30
2018-05-17T12:21:23.372Z,66.50
2018-05-17T12:23:50.214Z,67.00
2018-05-17T12:26:17.063Z,65.40
2018-05-17T12:28:43.913Z,65.40
2018-05-17T12:31:10.653Z,65.40
2018-05-17T12:33:37.468Z,64.70
2018-05-17T12:36:04.548Z,64.50
2018-05-17T12:38:31.600Z,65.50
2018-05-17T12:40:58.440Z,66.30
2018-05-17T12:43:25.147Z,66.80
2018-05-17T12:45:52.138Z,66.80
2018-05-17T12:48:19.285Z,65.80
2018-05-17T12:50:46.349Z,65.90
2018-05-17T12:53:13.253Z,66.90
2018-05-17T12:55:40.074Z,68.00
2018-05-17T12:58:07.681Z,64.40
2018-05-17T13:00:34.500Z,64.30
2018-05-17T13:03:01.490Z,65.90
2018-05-17T13:05:28.419Z,66.60
2018-05-17T13:07:55.378Z,65.50
2018-05-17T13:10:22.427Z,65.10
2018-05-17T13:12:49.134Z,64.30
2018-05-17T13:18:16.632Z,63.00
2018-05-17T13:20:43.450Z,65.20
2018-05-17T13:23:10.276Z,64.20
2018-05-17T13:25:36.995Z,64.30
2018-05-17T13:28:04.096Z,65.40
2018-05-17T13:30:31.284Z,65.00
2018-05-17T13:32:58.095Z,65.50
2018-05-17T13:35:24.991Z,65.20
2018-05-17T13:37:51.895Z,65.00
2018-05-17T13:40:18.654Z,66.20
2018-05-17T13:42:45.713Z,66.60
2018-05-17T13:45:12.552Z,66.80
2018-05-17T13:47:40.162Z,67.40
2018-05-17T13:50:06.973Z,67.10
2018-05-17T13:52:33.913Z,67.70
2018-05-17T13:55:00.753Z,67.20
2018-05-17T13:57:27.597Z,67.80
2018-05-17T13:59:54.526Z,67.80
2018-05-17T14:02:21.690Z,68.20
2018-05-17T14:04:49.261Z,66.90
2018-05-17T14:07:16.108Z,66.80
2018-05-17T14:09:42.930Z,65.90
2018-05-17T14:12:09.893Z,64.80
2018-05-17T14:14:55.131Z,64.20
2018-05-17T14:17:27.237Z,64.60
2018-05-17T14:19:54.026Z,64.50
2018-05-17T14:22:21.651Z,62.00
2018-05-17T14:24:48.598Z,61.90
2018-05-17T14:27:15.547Z,62.20
2018-05-17T14:29:42.272Z,63.90
2018-05-17T14:32:09.125Z,64.00
2018-05-17T14:34:36.079Z,65.10
2018-05-17T14:37:03.017Z,65.80
2018-05-17T14:39:30.075Z,65.50
2018-05-17T14:41:56.889Z,66.20
2018-05-17T14:44:23.655Z,66.30
2018-05-17T14:46:50.470Z,67.30
2018-05-17T14:49:17.458Z,67.90
2018-05-17T14:51:44.395Z,67.60
2018-05-17T14:54:11.242Z,65.70
2018-05-17T14:56:38.118Z,66.30
2018-05-17T14:59:04.929Z,67.60
2018-05-17T15:01:31.780Z,67.80
2018-05-17T15:03:58.834Z,67.80
2018-05-17T15:06:25.543Z,67.60
2018-05-17T15:08:53.123Z,68.10
2018-05-17T15:11:24.541Z,68.70
2018-05-17T15:13:52.076Z,67.50
2018-05-17T15:16:50.152Z,67.40
2018-05-17T15:19:16.883Z,66.40
2018-05-17T15:21:43.633Z,66.70
2018-05-17T15:24:10.448Z,65.90
2018-05-17T15:26:37.390Z,63.20
2018-05-17T15:29:04.210Z,62.50
2018-05-17T15:31:31.101Z,61.40
2018-05-17T15:33:58.034Z,61.70
2018-05-17T15:36:26.333Z,62.80
2018-05-17T15:38:53.086Z,62.80
2018-05-17T15:41:20.005Z,63.30
2018-05-17T15:43:46.848Z,64.10
2018-05-17T15:46:13.801Z,64.20
2018-05-17T15:48:40.633Z,64.20
2018-05-17T15:51:07.481Z,64.20
2018-05-17T15:53:34.524Z,64.60
2018-05-17T15:56:02.064Z,65.30
2018-05-17T15:58:29.148Z,65.30
2018-05-17T16:00:55.884Z,65.10
2018-05-17T16:03:22.671Z,66.00
2018-05-17T16:05:50.503Z,66.80
2018-05-17T16:08:18.449Z,66.70
2018-05-17T16:10:46.038Z,67.00
2018-05-17T16:13:12.872Z,67.10
2018-05-17T16:18:42.649Z,67.80
2018-05-17T16:21:10.155Z,68.20
2018-05-17T16:23:36.967Z,68.20
2018-05-17T16:26:04.547Z,68.60
2018-05-17T16:28:31.918Z,68.60
2018-05-17T16:30:58.675Z,67.70
2018-05-17T16:33:25.442Z,68.10
2018-05-17T16:35:52.342Z,68.00
2018-05-17T16:38:19.215Z,68.20
2018-05-17T16:40:46.154Z,68.20
2018-05-17T16:43:12.997Z,68.20
2018-05-17T16:45:40.059Z,67.80
2018-05-17T16:48:07.201Z,67.60
2018-05-17T16:50:34.879Z,67.70
2018-05-17T16:53:01.673Z,67.80
2018-05-17T16:55:29.197Z,68.80
2018-05-17T16:57:56.121Z,68.70
2018-05-17T17:00:23.144Z,69.40
2018-05-17T17:02:50.213Z,69.70
2018-05-17T17:05:17.679Z,69.50
2018-05-17T17:07:44.632Z,69.50
2018-05-17T17:10:11.467Z,69.70
2018-05-17T17:12:38.286Z,70.00
2018-05-17T17:15:34.805Z,70.00
2018-05-17T17:18:05.216Z,70.80
2018-05-17T17:20:32.847Z,71.80
2018-05-17T17:22:59.654Z,71.00
2018-05-17T17:25:27.229Z,71.80
2018-05-17T17:27:54.095Z,71.80
2018-05-17T17:30:20.946Z,71.80
2018-05-17T17:32:47.814Z,71.70
2018-05-17T17:35:15.663Z,72.90
2018-05-17T17:37:42.501Z,72.80
2018-05-17T17:40:09.353Z,73.30
2018-05-17T17:42:36.084Z,73.80
2018-05-17T17:45:02.925Z,73.70
2018-05-17T17:47:29.888Z,74.00
2018-05-17T17:49:56.701Z,74.50
2018-05-17T17:52:24.166Z,75.00
2018-05-17T17:54:50.949Z,74.90
2018-05-17T17:57:17.872Z,75.20
2018-05-17T17:59:44.817Z,75.10
2018-05-17T18:02:11.609Z,75.20
2018-05-17T18:04:39.091Z,75.20
2018-05-17T18:07:05.814Z,75.10
2018-05-17T18:09:34.042Z,75.10
2018-05-17T18:12:00.997Z,75.10
2018-05-17T18:14:44.096Z,75.20
2018-05-17T18:17:31.655Z,75.20
2018-05-17T18:19:59.213Z,76.00
2018-05-17T18:22:26.164Z,75.20
2018-05-17T18:24:53.005Z,75.20
2018-05-17T18:27:20.664Z,75.00
2018-05-17T18:29:47.679Z,75.00
2018-05-17T18:32:14.771Z,75.10
2018-05-17T18:34:41.710Z,75.10
2018-05-17T18:37:08.534Z,75.00
2018-05-17T18:39:35.263Z,75.10
2018-05-17T18:42:02.357Z,75.00
2018-05-17T18:44:29.404Z,74.80
2018-05-17T18:46:56.235Z,74.70
2018-05-17T18:49:23.026Z,74.70
2018-05-17T18:51:50.533Z,74.80
2018-05-17T18:54:45.605Z,74.70
2018-05-17T18:57:29.252Z,74.60
2018-05-17T18:59:56.357Z,74.50
2018-05-17T19:02:23.404Z,74.40
2018-05-17T19:04:50.243Z,74.30
2018-05-17T19:07:17.030Z,74.10
2018-05-17T19:09:44.642Z,73.90
2018-05-17T19:12:11.416Z,73.90
2018-05-17T19:14:55.341Z,73.90
2018-05-17T19:17:37.785Z,73.80
2018-05-17T19:20:05.406Z,73.40
2018-05-17T19:22:32.268Z,73.40
2018-05-17T19:25:00.026Z,73.10
2018-05-17T19:27:26.967Z,72.90
2018-05-17T19:29:53.735Z,72.80
2018-05-17T19:32:20.517Z,72.60
2018-05-17T19:34:47.481Z,72.30
2018-05-17T19:37:14.572Z,72.30
2018-05-17T19:39:42.221Z,72.00
2018-05-17T19:42:10.184Z,71.80
2018-05-17T19:44:36.929Z,71.70
2018-05-17T19:47:03.672Z,71.50
2018-05-17T19:49:30.728Z,71.30
2018-05-17T19:51:57.591Z,71.20
2018-05-17T19:54:24.405Z,71.20
2018-05-17T19:56:51.223Z,71.30
2018-05-17T19:59:18.043Z,71.00
2018-05-17T20:01:45.656Z,71.00
2018-05-17T20:04:12.602Z,71.10
2018-05-17T20:06:39.697Z,70.90
2018-05-17T20:09:07.216Z,71.00
2018-05-17T20:11:34.172Z,70.90
2018-05-17T20:14:00.962Z,71.00
2018-05-17T20:19:38.734Z,70.90
2018-05-17T20:22:05.511Z,70.90
2018-05-17T20:24:33.224Z,71.00
2018-05-17T20:30:20.504Z,70.90
2018-05-17T20:32:47.397Z,70.80
2018-05-17T20:35:14.183Z,70.80
2018-05-17T20:37:41.183Z,70.80
2018-05-17T20:40:08.071Z,70.80
2018-05-17T20:42:34.881Z,71.10
2018-05-17T20:45:01.877Z,71.00
2018-05-17T20:47:28.598Z,71.00
2018-05-17T20:49:55.449Z,70.90
2018-05-17T20:52:22.397Z,71.10
2018-05-17T20:54:49.242Z,71.00
2018-05-17T20:57:16.087Z,71.00
2018-05-17T20:59:42.939Z,70.90
2018-05-17T21:02:09.888Z,71.10
2018-05-17T21:04:36.728Z,71.20
2018-05-17T21:07:03.782Z,71.20
2018-05-17T21:09:30.615Z,71.00
2018-05-17T21:11:57.464Z,71.10
2018-05-17T21:14:37.023Z,71.30
2018-05-17T21:17:46.261Z,71.30
2018-05-17T21:20:13.195Z,71.30
2018-05-17T21:22:40.040Z,71.30
2018-05-17T21:25:06.994Z,71.10
2018-05-17T21:27:33.790Z,71.20
2018-05-17T21:30:00.783Z,71.30
2018-05-17T21:32:27.582Z,71.20
2018-05-17T21:34:55.135Z,71.30
2018-05-17T21:37:22.741Z,71.30
2018-05-17T21:39:49.739Z,71.20
2018-05-17T21:42:17.356Z,71.90
2018-05-17T21:44:44.110Z,72.00
2018-05-17T21:47:10.910Z,72.00
2018-05-17T21:49:37.788Z,72.20
2018-05-17T21:52:04.614Z,71.90
2018-05-17T21:54:31.590Z,72.00
2018-05-17T21:56:58.536Z,72.00
2018-05-17T21:59:25.373Z,71.90
2018-05-17T22:01:52.533Z,71.80
2018-05-17T22:04:19.350Z,72.00
2018-05-17T22:06:46.214Z,72.20
2018-05-17T22:09:12.907Z,72.20
2018-05-17T22:11:41.087Z,72.60
2018-05-17T22:14:08.797Z,72.40
2018-05-17T22:16:35.584Z,72.40
2018-05-17T22:19:03.415Z,73.00
2018-05-17T22:21:30.365Z,73.00
2018-05-17T22:23:57.409Z,73.40
2018-05-17T22:26:24.178Z,74.20
2018-05-17T22:28:50.970Z,74.30
2018-05-17T22:31:17.837Z,74.60
2018-05-17T22:33:44.559Z,74.90
2018-05-17T22:36:11.308Z,74.90
2018-05-17T22:38:38.780Z,74.90
2018-05-17T22:41:05.506Z,74.80
2018-05-17T22:43:32.377Z,75.10
2018-05-17T22:45:59.220Z,75.10
2018-05-17T22:48:26.055Z,75.00
2018-05-17T22:50:52.770Z,74.80
2018-05-17T22:53:19.566Z,74.90
2018-05-17T22:55:48.042Z,74.70
2018-05-17T22:58:26.850Z,75.50
2018-05-17T23:00:53.594Z,74.70
2018-05-17T23:03:20.303Z,75.30
2018-05-17T23:05:47.014Z,75.80
2018-05-17T23:08:14.447Z,76.30
2018-05-17T23:10:41.268Z,76.30
2018-05-17T23:13:07.970Z,75.90
2018-05-17T23:15:35.796Z,75.10
2018-05-17T23:18:02.517Z,75.00
2018-05-17T23:20:29.479Z,75.00
2018-05-17T23:22:56.321Z,74.90
2018-05-17T23:25:23.472Z,74.90
2018-05-17T23:27:50.183Z,74.90
2018-05-17T23:30:17.172Z,74.80
2018-05-17T23:32:43.982Z,74.80
2018-05-17T23:35:10.707Z,74.80
2018-05-17T23:37:37.533Z,74.50
2018-05-17T23:43:09.380Z,74.40
2018-05-17T23:45:37.045Z,74.50
2018-05-17T23:48:03.861Z,74.40
2018-05-17T23:50:31.049Z,74.30
2018-05-17T23:52:57.883Z,74.10
2018-05-17T23:55:24.770Z,73.90
2018-05-17T23:57:52.395Z,74.10
